createdAt,value
2019-04-01T00:01:44.648Z,12.30
2019-04-01T00:05:45.683Z,11.87
2019-04-01T00:09:46.605Z,12.40
2019-04-01T00:13:47.487Z,11.77
2019-04-01T00:17:48.372Z,11.57
2019-04-01T00:21:49.254Z,12.13
2019-04-01T00:25:50.248Z,11.10
2019-04-01T00:29:51.117Z,11.17
2019-04-01T00:33:52.092Z,12.00
2019-04-01T00:37:52.985Z,12.03
2019-04-01T00:41:55.719Z,10.07
2019-04-01T00:45:58.504Z,13.57
2019-04-01T00:49:59.366Z,12.40
2019-04-01T00:54:00.361Z,12.43
2019-04-01T00:58:01.327Z,13.23
2019-04-01T01:02:02.374Z,12.23
2019-04-01T01:06:03.515Z,13.00
2019-04-01T01:10:05.889Z,12.40
2019-04-01T01:14:06.767Z,13.10
2019-04-01T01:18:07.635Z,11.83
2019-04-01T01:22:08.489Z,12.07
2019-04-01T01:26:09.433Z,13.80
2019-04-01T01:30:10.987Z,11.67
2019-04-01T01:34:11.869Z,10.53
2019-04-01T01:38:12.736Z,12.23
2019-04-01T01:42:13.682Z,13.57
2019-04-01T01:46:14.606Z,13.03
2019-04-01T01:50:15.586Z,12.63
2019-04-01T01:54:16.451Z,12.53
2019-04-01T01:58:17.335Z,11.23
2019-04-01T02:02:18.207Z,12.57
2019-04-01T02:06:19.082Z,13.30
2019-04-01T02:10:20.181Z,13.83
2019-04-01T02:14:21.032Z,10.80
2019-04-01T02:18:21.960Z,12.60
2019-04-01T02:22:22.816Z,12.43
2019-04-01T02:26:23.693Z,12.83
2019-04-01T02:30:24.569Z,13.00
2019-04-01T02:34:25.448Z,12.27
2019-04-01T02:38:26.401Z,11.43
2019-04-01T02:42:27.282Z,10.87
2019-04-01T02:46:28.313Z,13.20
2019-04-01T02:50:29.331Z,13.83
2019-04-01T02:54:30.221Z,11.63
2019-04-01T02:58:31.207Z,13.83
2019-04-01T03:02:32.113Z,14.43
2019-04-01T03:06:33.137Z,12.23
2019-04-01T03:10:34.033Z,11.97
2019-04-01T03:14:35.126Z,12.83
2019-04-01T03:18:36.148Z,14.13
2019-04-01T03:22:37.106Z,13.07
2019-04-01T03:26:37.947Z,13.80
2019-04-01T03:30:38.939Z,12.87
2019-04-01T03:34:39.816Z,12.53
2019-04-01T03:38:40.793Z,12.97
2019-04-01T03:42:41.749Z,11.37
2019-04-01T03:46:42.639Z,13.20
2019-04-01T03:50:43.631Z,12.97
2019-04-01T03:54:44.591Z,12.53
2019-04-01T03:58:45.503Z,12.03
2019-04-01T04:02:46.547Z,12.63
2019-04-01T04:06:47.425Z,12.67
2019-04-01T04:10:48.297Z,12.13
2019-04-01T04:14:51.405Z,12.40
2019-04-01T04:18:51.963Z,14.27
2019-04-01T04:22:52.934Z,13.97
2019-04-01T04:26:53.862Z,13.13
2019-04-01T04:30:54.915Z,14.67
2019-04-01T04:34:57.516Z,14.17
2019-04-01T04:38:58.746Z,13.73
2019-04-01T04:42:59.659Z,13.13
2019-04-01T04:47:00.570Z,12.60
2019-04-01T04:51:01.612Z,13.37
2019-04-01T04:55:03.775Z,12.47
2019-04-01T04:59:04.640Z,12.60
2019-04-01T05:03:05.631Z,13.10
2019-04-01T05:07:06.656Z,12.43
2019-04-01T05:11:07.516Z,12.87
2019-04-01T05:15:08.576Z,12.83
2019-04-01T05:19:09.558Z,13.70
2019-04-01T05:23:11.849Z,13.60
2019-04-01T05:27:13.640Z,12.43
2019-04-01T05:31:18.132Z,14.03
2019-04-01T05:35:19.129Z,17.90
2019-04-01T05:39:20.512Z,24.77
2019-04-01T05:43:21.692Z,20.43
2019-04-01T05:47:24.677Z,20.10
2019-04-01T05:51:25.625Z,19.40
2019-04-01T05:55:26.701Z,20.47
2019-04-01T05:59:27.910Z,17.17
2019-04-01T06:03:28.783Z,15.90
2019-04-01T06:07:29.805Z,14.30
2019-04-01T06:11:30.753Z,14.90
2019-04-01T06:15:31.883Z,12.67
2019-04-01T06:19:32.983Z,12.37
2019-04-01T06:23:34.191Z,12.93
2019-04-01T06:27:35.286Z,12.87
2019-04-01T06:31:36.276Z,9.73
2019-04-01T06:35:37.174Z,8.10
2019-04-01T06:39:38.250Z,6.43
2019-04-01T06:43:39.205Z,6.37
2019-04-01T06:47:40.191Z,7.30
2019-04-01T06:51:41.395Z,8.03
2019-04-01T06:55:42.573Z,7.37
2019-04-01T06:59:44.069Z,6.83
2019-04-01T07:03:45.024Z,5.73
2019-04-01T07:07:45.943Z,6.43
2019-04-01T07:11:46.950Z,5.27
2019-04-01T07:15:47.962Z,6.53
2019-04-01T07:19:48.948Z,6.30
2019-04-01T07:23:50.295Z,7.00
2019-04-01T07:27:51.453Z,5.60
2019-04-01T07:31:52.424Z,6.23
2019-04-01T07:35:53.335Z,6.23
2019-04-01T07:39:54.396Z,6.17
2019-04-01T07:43:55.564Z,6.80
2019-04-01T07:47:56.633Z,6.17
2019-04-01T07:51:57.814Z,6.47
2019-04-01T07:56:02.285Z,6.63
2019-04-01T08:00:03.613Z,6.73
2019-04-01T08:04:04.489Z,7.10
2019-04-01T08:08:06.135Z,6.70
2019-04-01T08:12:07.213Z,6.30
2019-04-01T08:16:08.279Z,8.70
2019-04-01T08:20:09.749Z,6.53
2019-04-01T08:24:10.854Z,7.10
2019-04-01T08:28:11.978Z,6.93
2019-04-01T08:32:13.977Z,6.57
2019-04-01T08:36:15.298Z,7.73
2019-04-01T08:40:16.344Z,7.40
2019-04-01T08:44:17.488Z,7.27
2019-04-01T08:48:18.509Z,7.63
2019-04-01T08:52:19.620Z,7.93
2019-04-01T08:56:20.554Z,8.73
2019-04-01T09:00:21.614Z,9.33
2019-04-01T09:04:22.499Z,9.37
2019-04-01T09:08:25.117Z,9.63
2019-04-01T09:12:26.661Z,9.70
2019-04-01T09:16:28.677Z,14.53
2019-04-01T09:20:29.569Z,11.13
2019-04-01T09:24:30.553Z,12.67
2019-04-01T09:28:31.543Z,12.80
2019-04-01T09:32:32.434Z,9.73
2019-04-01T09:36:33.397Z,11.00
2019-04-01T09:40:34.287Z,12.83
2019-04-01T09:44:37.079Z,9.93
2019-04-01T09:48:38.450Z,12.67
2019-04-01T09:52:39.499Z,12.33
2019-04-01T09:56:40.388Z,15.20
2019-04-01T10:00:41.279Z,10.77
2019-04-01T10:04:42.219Z,12.07
2019-04-01T10:08:43.142Z,14.50
2019-04-01T10:12:45.978Z,11.63
2019-04-01T10:16:46.845Z,12.17
2019-04-01T10:20:47.740Z,13.00
2019-04-01T10:24:48.582Z,13.20
2019-04-01T10:28:51.898Z,14.10
2019-04-01T10:32:52.776Z,13.57
2019-04-01T10:36:53.688Z,11.97
2019-04-01T10:40:54.584Z,12.70
2019-04-01T10:44:55.706Z,14.37
2019-04-01T10:48:57.052Z,12.50
2019-04-01T10:52:58.007Z,13.73
2019-04-01T10:56:59.083Z,14.17
2019-04-01T11:00:59.980Z,12.77
2019-04-01T11:05:01.157Z,14.63
2019-04-01T11:09:04.888Z,13.73
2019-04-01T11:13:06.072Z,13.83
2019-04-01T11:17:07.164Z,15.73
2019-04-01T11:21:08.017Z,16.23
2019-04-01T11:25:09.117Z,15.93
2019-04-01T11:29:10.102Z,16.27
2019-04-01T11:33:11.111Z,14.47
2019-04-01T11:37:12.193Z,15.60
2019-04-01T11:41:13.421Z,16.40
2019-04-01T11:45:14.595Z,16.83
2019-04-01T11:49:15.509Z,16.53
2019-04-01T11:53:16.595Z,16.27
2019-04-01T11:57:17.722Z,16.40
2019-04-01T12:01:18.618Z,17.07
2019-04-01T12:05:19.526Z,16.87
2019-04-01T12:09:20.506Z,19.10
2019-04-01T12:13:21.573Z,18.10
2019-04-01T12:17:22.473Z,18.50
2019-04-01T12:21:23.401Z,18.50
2019-04-01T12:25:24.490Z,18.07
2019-04-01T12:29:25.556Z,19.77
2019-04-01T12:33:26.679Z,19.47
2019-04-01T12:37:30.111Z,20.67
2019-04-01T12:41:30.464Z,18.93
2019-04-01T12:45:31.502Z,18.97
2019-04-01T12:49:32.369Z,21.37
2019-04-01T12:53:33.429Z,21.93
2019-04-01T12:57:34.476Z,21.77
2019-04-01T13:01:35.477Z,19.30
2019-04-01T13:05:36.322Z,20.93
2019-04-01T13:09:37.346Z,20.80
2019-04-01T13:13:38.391Z,20.10
2019-04-01T13:17:39.320Z,23.33
2019-04-01T13:21:40.358Z,21.80
2019-04-01T13:25:42.252Z,21.27
2019-04-01T13:29:43.446Z,19.30
2019-04-01T13:33:44.961Z,20.50
2019-04-01T13:37:46.934Z,20.63
2019-04-01T13:41:48.569Z,23.70
2019-04-01T13:45:50.334Z,21.90
2019-04-01T13:49:51.515Z,19.07
2019-04-01T13:54:07.665Z,19.87
2019-04-01T13:57:55.782Z,19.70
2019-04-01T14:01:57.083Z,20.80
2019-04-01T14:05:58.335Z,22.30
2019-04-01T14:09:59.355Z,22.40
2019-04-01T14:14:00.216Z,22.20
2019-04-01T14:18:04.387Z,19.77
2019-04-01T14:22:05.223Z,19.47
2019-04-01T14:26:06.142Z,20.00
2019-04-01T14:30:09.630Z,21.90
2019-04-01T14:34:13.685Z,21.73
2019-04-01T14:38:14.714Z,20.80
2019-04-01T14:42:15.706Z,19.73
2019-04-01T14:46:16.811Z,21.57
2019-04-01T14:50:17.826Z,18.90
2019-04-01T14:54:20.680Z,18.93
2019-04-01T14:58:23.174Z,18.83
2019-04-01T15:02:25.259Z,19.37
2019-04-01T15:06:26.201Z,22.80
2019-04-01T15:10:27.428Z,19.40
2019-04-01T15:14:28.496Z,19.97
2019-04-01T15:18:29.413Z,18.93
2019-04-01T15:22:30.312Z,20.30
2019-04-01T15:26:31.408Z,20.10
2019-04-01T15:30:32.376Z,18.10
2019-04-01T15:34:33.371Z,19.17
2019-04-01T15:38:34.438Z,19.97
2019-04-01T15:42:35.424Z,19.70
2019-04-01T15:46:36.404Z,18.20
2019-04-01T15:50:38.699Z,20.23
2019-04-01T15:54:39.853Z,20.40
2019-04-01T15:58:40.794Z,20.07
2019-04-01T16:02:41.899Z,19.47
2019-04-01T16:06:42.794Z,18.53
2019-04-01T16:10:43.741Z,19.47
2019-04-01T16:14:44.627Z,20.53
2019-04-01T16:18:45.599Z,19.40
2019-04-01T16:22:46.487Z,19.10
2019-04-01T16:26:47.343Z,19.40
2019-04-01T16:30:48.239Z,19.13
2019-04-01T16:34:49.368Z,19.33
2019-04-01T16:38:50.294Z,19.97
2019-04-01T16:42:51.375Z,19.63
2019-04-01T16:46:52.504Z,19.13
2019-04-01T16:50:53.592Z,17.07
2019-04-01T16:54:57.700Z,17.83
2019-04-01T16:58:59.120Z,17.77
2019-04-01T17:03:01.213Z,16.80
2019-04-01T17:07:02.212Z,18.07
2019-04-01T17:11:03.310Z,16.80
2019-04-01T17:15:04.723Z,14.73
2019-04-01T17:19:05.670Z,15.87
2019-04-01T17:23:06.676Z,15.73
2019-04-01T17:27:12.109Z,15.23
2019-04-01T17:31:13.087Z,16.00
2019-04-01T17:35:14.297Z,14.03
2019-04-01T17:39:15.144Z,15.60
2019-04-01T17:43:16.454Z,15.87
2019-04-01T17:47:17.834Z,13.77
2019-04-01T17:51:18.834Z,14.20
2019-04-01T17:55:19.930Z,13.80
2019-04-01T17:59:21.036Z,14.57
2019-04-01T18:03:22.150Z,14.50
2019-04-01T18:07:24.548Z,14.63
2019-04-01T18:11:26.178Z,12.40
2019-04-01T18:15:28.659Z,14.30
2019-04-01T18:19:29.660Z,14.75
2019-04-01T18:23:30.764Z,13.43
2019-04-01T18:27:31.798Z,14.27
2019-04-01T18:31:33.184Z,13.20
2019-04-01T18:35:34.240Z,12.77
2019-04-01T18:39:47.580Z,13.00
2019-04-01T18:43:38.068Z,12.87
2019-04-01T18:47:39.327Z,12.13
2019-04-01T18:51:40.381Z,11.73
2019-04-01T18:55:41.677Z,12.40
2019-04-01T18:59:42.646Z,13.00
2019-04-01T19:03:43.743Z,12.50
2019-04-01T19:07:44.759Z,18.97
2019-04-01T19:11:45.688Z,30.10
2019-04-01T19:15:47.307Z,21.20
2019-04-01T19:19:48.863Z,17.57
2019-04-01T19:23:50.118Z,16.57
2019-04-01T19:27:50.992Z,15.00
2019-04-01T19:31:52.242Z,16.10
2019-04-01T19:35:53.144Z,15.50
2019-04-01T19:39:54.018Z,14.30
2019-04-01T19:43:54.872Z,16.10
2019-04-01T19:47:57.395Z,15.67
2019-04-01T19:51:58.723Z,15.90
2019-04-01T19:55:59.663Z,16.73
2019-04-01T20:00:00.817Z,14.20
2019-04-01T20:04:02.041Z,15.60
2019-04-01T20:08:03.218Z,15.93
2019-04-01T20:12:04.510Z,15.63
2019-04-01T20:16:05.609Z,17.40
2019-04-01T20:20:06.874Z,14.17
2019-04-01T20:24:07.895Z,15.77
2019-04-01T20:28:08.918Z,14.27
2019-04-01T20:32:17.335Z,14.23
2019-04-01T20:36:12.864Z,17.65
2019-04-01T20:40:14.555Z,16.07
2019-04-01T20:44:15.451Z,17.00
2019-04-01T20:48:16.523Z,13.77
2019-04-01T20:52:17.543Z,14.60
2019-04-01T20:56:20.113Z,17.73
2019-04-01T21:00:21.425Z,15.83
2019-04-01T21:04:22.325Z,14.67
2019-04-01T21:08:23.245Z,19.10
2019-04-01T21:12:24.125Z,16.40
2019-04-01T21:16:25.203Z,15.70
2019-04-01T21:20:26.205Z,12.43
2019-04-01T21:24:27.113Z,17.43
2019-04-01T21:28:28.016Z,17.67
2019-04-01T21:32:28.962Z,18.10
2019-04-01T21:36:29.963Z,17.30
2019-04-01T21:40:30.868Z,14.90
2019-04-01T21:44:31.726Z,15.13
2019-04-01T21:48:32.998Z,14.57
2019-04-01T21:52:34.301Z,14.00
2019-04-01T21:56:35.306Z,12.70
2019-04-01T22:00:38.305Z,13.80
2019-04-01T22:04:39.160Z,13.90
2019-04-01T22:08:40.654Z,13.33
2019-04-01T22:12:41.565Z,14.33
2019-04-01T22:16:42.541Z,15.40
2019-04-01T22:20:43.463Z,12.73
2019-04-01T22:24:44.290Z,14.20
2019-04-01T22:28:45.181Z,14.47
2019-04-01T22:32:46.032Z,12.63
2019-04-01T22:36:46.927Z,12.93
2019-04-01T22:40:47.821Z,13.10
2019-04-01T22:44:48.663Z,13.90
2019-04-01T22:48:49.642Z,14.00
2019-04-01T22:52:50.609Z,14.53
2019-04-01T22:56:51.486Z,15.23
2019-04-01T23:00:52.607Z,13.43
2019-04-01T23:04:53.470Z,14.03
2019-04-01T23:08:54.370Z,13.70
2019-04-01T23:12:55.352Z,15.67
2019-04-01T23:16:56.210Z,14.20
2019-04-01T23:20:57.111Z,14.27
2019-04-01T23:24:58.065Z,13.73
2019-04-01T23:28:58.920Z,13.40
2019-04-01T23:32:59.972Z,13.73
2019-04-01T23:37:00.846Z,14.50
2019-04-01T23:41:01.730Z,12.73
2019-04-01T23:45:04.746Z,13.53
2019-04-01T23:49:05.660Z,13.43
2019-04-01T23:53:06.717Z,15.13
2019-04-01T23:57:07.596Z,15.83
